Time;durP1;ratioP1;P1;durP2;ratioP2;P2;SDS_P1;SDS_P2;PMS_P1;PMS_P2;Temp;Humidity;BMP_temperature;BMP_pressure;BME280_temperature;BME280_humidity;BME280_pressure;Samples;Min_cycle;Max_cycle;Signal;HPM_P1;HPM_P2
2021/03/16 00:00:15;;;;;;;3.93;1.13;;;;;;;1.06;80.76;100712.88;5053634;28;20550;-68
2021/03/16 00:03:02;;;;;;;1.63;1.23;;;;;;;1.07;80.67;100722.53;5053221;28;20244;-68
2021/03/16 00:05:35;;;;;;;1.40;1.17;;;;;;;1.06;81.07;100726.09;5060790;28;20629;-69
2021/03/16 00:08:04;;;;;;;1.57;1.10;;;;;;;0.88;80.64;100696.63;5065559;28;20215;-68
2021/03/16 00:10:31;;;;;;;3.27;1.50;;;;;;;1.08;80.84;100719.00;5066486;28;20199;-68
2021/03/16 00:12:58;;;;;;;603.43;255.33;;;;;;;1.10;80.94;100725.09;5063819;28;20232;-68
2021/03/16 00:15:25;;;;;;;27.43;13.00;;;;;;;1.11;80.69;100734.75;5049864;28;20608;-68
2021/03/16 00:17:52;;;;;;;4.27;2.73;;;;;;;1.07;81.44;100722.53;5050234;28;20672;-68
2021/03/16 00:20:20;;;;;;;12.00;6.87;;;;;;;1.10;81.73;100738.31;5063270;28;20199;-67
2021/03/16 00:22:47;;;;;;;2.93;2.17;;;;;;;1.20;81.68;100737.13;5063388;28;20298;-68
2021/03/16 00:25:16;;;;;;;8.17;4.97;;;;;;;1.28;81.75;100743.09;5063817;28;20615;-67
2021/03/16 00:27:45;;;;;;;10.47;8.17;;;;;;;1.36;81.38;100746.34;5062190;28;20630;-67
2021/03/16 00:30:14;;;;;;;12.20;9.90;;;;;;;1.40;80.95;100753.28;5069454;28;20226;-68
2021/03/16 00:32:41;;;;;;;10.47;8.00;;;;;;;1.43;81.50;100747.03;5041319;28;20635;-68
2021/03/16 00:35:09;;;;;;;2.20;2.00;;;;;;;1.44;81.38;100746.13;5064030;28;20230;-68
2021/03/16 00:37:36;;;;;;;4.57;1.83;;;;;;;1.45;81.06;100751.34;5060468;28;20638;-68
2021/03/16 00:40:05;;;;;;;3.03;1.27;;;;;;;1.44;80.91;100741.69;5068086;28;20215;-68
2021/03/16 00:42:33;;;;;;;4.93;3.67;;;;;;;1.42;80.67;100730.28;5070084;28;20586;-67
2021/03/16 00:45:00;;;;;;;10.90;7.93;;;;;;;1.46;80.67;100739.88;5055412;28;20207;-67
2021/03/16 00:47:27;;;;;;;11.43;8.77;;;;;;;1.48;80.70;100739.81;5063487;28;20249;-68
2021/03/16 00:49:55;;;;;;;1.93;1.47;;;;;;;1.23;80.37;100707.97;5062424;28;20217;-68
2021/03/16 00:52:23;;;;;;;1.43;1.30;;;;;;;1.40;80.17;100761.22;5051166;28;20282;-68
2021/03/16 00:54:50;;;;;;;3.30;1.50;;;;;;;1.34;80.41;100769.34;5047684;28;20205;-68
2021/03/16 00:57:19;;;;;;;6.13;2.67;;;;;;;1.26;80.78;100766.06;5049585;28;20204;-68
2021/03/16 00:59:47;;;;;;;6.00;1.80;;;;;;;1.10;80.95;100735.69;5056044;28;20667;-68
2021/03/16 01:02:27;;;;;;;1.30;1.20;;;;;;;1.27;80.85;100769.56;5055203;28;20550;-68
2021/03/16 01:04:54;;;;;;;0.80;0.80;;;;;;;1.14;80.44;100758.47;5062018;28;20234;-67
2021/03/16 01:07:21;;;;;;;1.80;1.17;;;;;;;1.13;80.56;100767.31;5038418;28;20221;-68
2021/03/16 01:09:48;;;;;;;3.03;2.73;;;;;;;1.09;80.46;100773.59;5068573;28;20503;-68
2021/03/16 01:12:15;;;;;;;1.30;1.20;;;;;;;1.08;80.53;100775.38;5056909;28;20732;-68
2021/03/16 01:14:43;;;;;;;1.13;1.03;;;;;;;1.12;80.45;100777.03;5054722;28;20307;-68
2021/03/16 01:17:11;;;;;;;1.33;0.97;;;;;;;1.12;80.42;100778.81;5058365;28;20226;-68
2021/03/16 01:19:39;;;;;;;3.23;0.80;;;;;;;1.10;80.43;100784.13;5040729;28;20206;-67
2021/03/16 01:22:07;;;;;;;2.20;1.00;;;;;;;1.08;80.34;100791.25;5049687;28;20677;-68
2021/03/16 01:24:34;;;;;;;3.63;1.30;;;;;;;1.03;80.52;100797.56;5052923;28;20232;-67
2021/03/16 01:27:02;;;;;;;0.80;0.80;;;;;;;0.95;80.47;100800.44;5068497;28;20704;-67
2021/03/16 01:29:29;;;;;;;1.10;1.00;;;;;;;0.87;80.18;100808.56;5035367;28;20230;-68
2021/03/16 01:31:56;;;;;;;1.17;1.07;;;;;;;0.72;80.27;100806.34;5066093;28;20197;-68
2021/03/16 01:34:25;;;;;;;1.17;1.00;;;;;;;0.63;80.69;100814.50;5054717;28;20232;-68
2021/03/16 01:36:52;;;;;;;2.27;1.10;;;;;;;0.52;80.69;100813.91;5039504;28;20251;-68
2021/03/16 01:39:19;;;;;;;2.43;1.17;;;;;;;0.50;80.63;100815.72;5066400;28;20282;-68
2021/03/16 01:41:46;;;;;;;1.80;1.23;;;;;;;0.36;81.00;100812.56;5051072;28;20202;-68
2021/03/16 01:44:13;;;;;;;2.73;1.00;;;;;;;0.36;80.98;100813.44;5068841;28;20245;-68
2021/03/16 01:46:41;;;;;;;1.70;1.23;;;;;;;0.35;81.18;100817.00;5068590;28;20273;-68
2021/03/16 01:49:09;;;;;;;1.00;0.90;;;;;;;0.41;80.93;100821.25;5068623;28;20742;-67
2021/03/16 01:51:37;;;;;;;1.97;1.17;;;;;;;0.42;81.27;100817.69;5063016;28;20199;-68
2021/03/16 01:54:06;;;;;;;1.20;1.10;;;;;;;0.46;81.28;100819.34;5049008;28;20195;-68
2021/03/16 01:56:37;;;;;;;2.50;1.10;;;;;;;0.54;80.96;100814.72;5062461;28;20577;-68
2021/03/16 01:59:25;;;;;;;1.93;0.93;;;;;;;0.64;80.75;100823.31;5063290;28;20256;-66
2021/03/16 02:02:11;;;;;;;1.10;1.03;;;;;;;0.45;80.47;100788.56;5067168;28;20210;-68
2021/03/16 02:04:57;;;;;;;0.97;0.93;;;;;;;0.64;81.05;100818.91;5068793;28;20710;-68
2021/03/16 02:07:53;;;;;;;311.33;139.37;;;;;;;0.67;80.68;100821.44;5062747;28;20221;-68
2021/03/16 02:10:46;;;;;;;217.90;81.67;;;;;;;0.67;80.43;100820.59;5066123;28;20217;-66
2021/03/16 02:13:38;;;;;;;14.40;5.93;;;;;;;0.59;79.91;100804.91;5066892;28;20866;-67
2021/03/16 02:16:30;;;;;;;2.53;2.23;;;;;;;0.73;80.32;100831.84;5073305;28;20273;-67
2021/03/16 02:19:30;;;;;;;7.43;4.10;;;;;;;0.74;80.28;100819.50;5059024;28;20206;-67
2021/03/16 02:22:17;;;;;;;4.93;2.57;;;;;;;0.74;80.15;100823.03;5072784;28;20284;-67
2021/03/16 02:25:15;;;;;;;5.03;3.50;;;;;;;0.78;80.20;100832.59;5066087;28;20685;-67
2021/03/16 02:28:21;;;;;;;1.87;1.33;;;;;;;0.76;79.77;100831.78;5056001;28;20239;-68
2021/03/16 02:31:11;;;;;;;3.07;1.77;;;;;;;0.71;79.81;100833.66;5061943;28;20214;-68
2021/03/16 02:33:58;;;;;;;2.33;2.03;;;;;;;0.64;79.96;100832.09;5069337;28;20205;-68
2021/03/16 02:36:45;;;;;;;1.60;1.33;;;;;;;0.65;79.96;100840.91;5071972;28;20524;-68
2021/03/16 02:39:32;;;;;;;1.67;1.57;;;;;;;0.53;80.30;100813.88;5057847;28;20228;-67
2021/03/16 02:42:20;;;;;;;1.47;1.27;;;;;;;0.66;80.23;100842.63;5057868;28;20720;-68
2021/03/16 02:45:10;;;;;;;2.37;2.10;;;;;;;0.68;80.02;100836.41;5060788;28;20209;-68
2021/03/16 02:47:59;;;;;;;2.63;1.73;;;;;;;0.76;80.18;100846.75;5058823;28;20213;-68
2021/03/16 02:50:48;;;;;;;1.90;1.47;;;;;;;0.79;80.14;100842.25;5071487;28;20205;-67
2021/03/16 02:53:34;;;;;;;8.47;2.00;;;;;;;0.81;79.99;100842.22;5061256;28;20263;-67
2021/03/16 02:56:23;;;;;;;2.80;1.87;;;;;;;0.89;80.04;100854.31;5057330;28;20585;-68
2021/03/16 02:59:10;;;;;;;3.33;1.70;;;;;;;0.92;80.02;100856.91;5070425;28;20292;-68
2021/03/16 03:01:57;;;;;;;3.07;1.60;;;;;;;0.89;80.31;100856.97;5071940;28;20577;-68
2021/03/16 03:04:47;;;;;;;1.10;1.00;;;;;;;0.83;79.77;100857.13;5071362;28;20237;-68
2021/03/16 03:07:33;;;;;;;1.63;1.10;;;;;;;0.81;79.88;100866.88;5071563;28;20281;-68
2021/03/16 03:10:20;;;;;;;1.40;1.10;;;;;;;0.79;79.68;100875.75;5062596;28;20268;-68
2021/03/16 03:13:06;;;;;;;2.47;1.10;;;;;;;0.73;80.09;100881.19;5067358;28;20204;-67
2021/03/16 03:15:53;;;;;;;4.53;1.40;;;;;;;0.72;80.08;100877.69;5071564;28;20281;-67
2021/03/16 03:18:39;;;;;;;0.97;0.90;;;;;;;0.73;79.93;100876.78;5057821;28;20217;-67
2021/03/16 03:21:31;;;;;;;1.17;1.10;;;;;;;-0.34;80.28;100697.22;5071339;28;20220;-67
2021/03/16 03:24:23;;;;;;;1.30;1.07;;;;;;;0.76;80.06;100887.28;5071487;28;20241;-68
2021/03/16 03:27:15;;;;;;;11.30;1.70;;;;;;;0.84;80.40;100895.00;5053280;28;20321;-68
2021/03/16 03:30:03;;;;;;;1.23;0.97;;;;;;;0.90;80.33;100890.41;5071216;28;20217;-68
2021/03/16 03:32:49;;;;;;;5.17;1.30;;;;;;;0.78;80.23;100861.66;5059911;28;20300;-69
2021/03/16 03:35:37;;;;;;;1.67;1.20;;;;;;;0.96;80.08;100888.53;5057017;28;20579;-68
2021/03/16 03:38:26;;;;;;;2.10;1.10;;;;;;;0.97;80.13;100893.78;5059389;28;20295;-68
2021/03/16 03:41:11;;;;;;;2.63;1.10;;;;;;;0.99;79.85;100899.91;5058071;28;20328;-67
2021/03/16 03:43:58;;;;;;;2.17;1.00;;;;;;;1.05;80.52;100898.88;5070832;28;20241;-67
2021/03/16 03:46:45;;;;;;;2.00;1.20;;;;;;;1.08;80.01;100898.78;5059991;28;20231;-67
2021/03/16 03:49:32;;;;;;;1.03;0.93;;;;;;;1.08;80.02;100898.78;5056681;28;20576;-67
2021/03/16 03:52:19;;;;;;;2.33;1.00;;;;;;;0.83;79.96;100853.63;5070091;28;20238;-68
2021/03/16 03:55:08;;;;;;;1.00;0.80;;;;;;;1.21;79.98;100914.28;5070895;28;20723;-67
2021/03/16 03:58:11;;;;;;;257.93;159.70;;;;;;;1.26;79.71;100908.88;5069586;28;20202;-67
2021/03/16 04:00:58;;;;;;;27.37;18.47;;;;;;;1.37;79.80;100925.31;5068709;28;20206;-67
2021/03/16 04:03:44;;;;;;;3.93;3.53;;;;;;;1.44;79.68;100921.59;5069536;28;20701;-67
2021/03/16 04:06:30;;;;;;;11.47;4.93;;;;;;;1.44;79.42;100924.25;5064650;28;20346;-68
2021/03/16 04:09:16;;;;;;;2.83;2.27;;;;;;;1.50;79.52;100921.41;5061448;28;20208;-68
2021/03/16 04:12:04;;;;;;;4.27;2.80;;;;;;;1.59;79.40;100927.38;5055916;28;20657;-67
2021/03/16 04:14:50;;;;;;;4.03;2.90;;;;;;;1.65;79.59;100933.38;5060950;28;20344;-67
2021/03/16 04:17:36;;;;;;;1.40;1.30;;;;;;;1.67;79.22;100930.69;5061149;28;20211;-68
2021/03/16 04:20:22;;;;;;;5.30;4.10;;;;;;;1.71;79.10;100930.53;5062830;28;20223;-68
2021/03/16 04:23:08;;;;;;;1.43;1.33;;;;;;;1.76;78.97;100938.34;5068253;28;20313;-67
2021/03/16 04:25:54;;;;;;;3.80;1.70;;;;;;;1.77;78.64;100938.31;5061038;28;20215;-67
2021/03/16 04:28:41;;;;;;;2.10;1.70;;;;;;;1.78;78.51;100936.53;5054476;28;20242;-68
2021/03/16 04:31:26;;;;;;;1.47;1.37;;;;;;;1.58;78.73;100912.44;5067516;28;20218;-67
2021/03/16 04:34:12;;;;;;;1.50;1.33;;;;;;;1.68;78.64;100938.56;5068029;28;20214;-68
2021/03/16 04:36:57;;;;;;;2.47;1.80;;;;;;;1.65;78.75;100941.31;5068110;28;20530;-67
2021/03/16 04:39:43;;;;;;;6.17;3.80;;;;;;;1.63;79.04;100943.13;5056054;28;20865;-68
2021/03/16 04:42:28;;;;;;;5.20;3.47;;;;;;;1.66;78.79;100955.41;5067302;28;20215;-68
2021/03/16 04:45:16;;;;;;;1.20;1.10;;;;;;;1.66;78.82;100951.00;5069862;28;20242;-68
2021/03/16 04:48:02;;;;;;;3.77;1.50;;;;;;;1.64;78.97;100962.53;5063703;28;20600;-67
2021/03/16 04:50:48;;;;;;;1.83;1.20;;;;;;;1.60;79.10;100963.53;5061945;28;20521;-68
2021/03/16 04:53:34;;;;;;;1.13;1.03;;;;;;;1.09;78.86;100900.53;5069782;28;20213;-68
2021/03/16 04:56:19;;;;;;;1.27;1.17;;;;;;;1.47;79.01;100963.84;5064938;28;20656;-68
2021/03/16 04:59:06;;;;;;;2.87;1.37;;;;;;;1.44;79.03;100968.34;5061306;28;20206;-68
2021/03/16 05:01:53;;;;;;;1.43;1.23;;;;;;;1.45;79.22;100970.94;5058658;28;20215;-68
2021/03/16 05:04:39;;;;;;;1.33;1.10;;;;;;;1.46;79.12;100970.03;5054602;28;20420;-68
2021/03/16 05:07:24;;;;;;;5.33;1.53;;;;;;;1.41;78.79;100981.66;5063270;28;20221;-70
2021/03/16 05:10:11;;;;;;;2.20;1.30;;;;;;;1.09;78.95;100927.81;5064428;28;20210;-68
2021/03/16 05:12:56;;;;;;;1.30;1.20;;;;;;;1.39;79.13;100967.59;5066709;28;20199;-68
2021/03/16 05:15:42;;;;;;;1.67;1.20;;;;;;;1.35;78.80;100977.41;5066338;28;20205;-68
2021/03/16 05:18:29;;;;;;;1.30;1.20;;;;;;;1.34;79.40;100973.03;5064322;28;20576;-68
2021/03/16 05:21:15;;;;;;;1.97;1.27;;;;;;;1.34;79.13;100985.38;5055756;28;20581;-67
2021/03/16 05:24:01;;;;;;;1.27;1.17;;;;;;;1.29;79.03;100984.63;5060063;28;20286;-66
2021/03/16 05:26:46;;;;;;;1.83;1.20;;;;;;;1.12;78.92;100974.47;5062351;28;20720;-68
2021/03/16 05:29:32;;;;;;;2.03;1.20;;;;;;;1.25;79.23;101005.00;5055199;28;20253;-68
2021/03/16 05:32:18;;;;;;;3.17;1.70;;;;;;;1.32;79.43;101005.72;5064101;28;20747;-67
2021/03/16 05:35:07;;;;;;;14.27;10.87;;;;;;;1.38;79.78;101003.78;5065243;28;20218;-68
2021/03/16 05:37:53;;;;;;;11.33;8.17;;;;;;;1.41;79.32;100998.41;5066006;28;20214;-68
2021/03/16 05:40:41;;;;;;;10.30;3.73;;;;;;;1.53;79.47;101008.69;5065218;28;20210;-68
2021/03/16 05:43:27;;;;;;;2.37;2.17;;;;;;;1.56;79.38;101013.03;5060611;28;20229;-69
2021/03/16 05:46:13;;;;;;;3.13;1.90;;;;;;;1.68;79.29;101006.53;5066209;28;20326;-68
2021/03/16 05:49:04;;;;;;;10.80;2.63;;;;;;;1.69;79.61;100995.91;5065943;28;20441;-68
2021/03/16 05:51:52;;;;;;;3.87;2.10;;;;;;;1.99;79.07;101010.06;5065650;28;20688;-68
2021/03/16 05:54:39;;;;;;;3.23;1.67;;;;;;;2.09;78.76;101019.47;5070502;28;20217;-68
2021/03/16 05:57:26;;;;;;;2.63;2.20;;;;;;;2.09;78.37;101018.59;5068386;28;20585;-68
2021/03/16 06:00:13;;;;;;;3.20;1.40;;;;;;;2.08;78.56;101014.22;5065591;28;20252;-68
2021/03/16 06:03:00;;;;;;;2.77;2.47;;;;;;;1.88;78.54;101019.22;5067766;28;20285;-68
2021/03/16 06:05:49;;;;;;;3.47;1.80;;;;;;;1.92;78.61;101021.75;5065450;28;20227;-68
2021/03/16 06:08:35;;;;;;;3.13;1.63;;;;;;;2.00;78.74;101030.34;5059457;28;20353;-68
2021/03/16 06:11:21;;;;;;;2.27;1.60;;;;;;;2.02;78.59;101033.81;5062240;28;20674;-68
2021/03/16 06:14:07;;;;;;;1.67;1.27;;;;;;;2.02;78.92;101036.47;5067380;28;20229;-69
2021/03/16 06:16:52;;;;;;;1.93;1.57;;;;;;;2.12;79.07;101034.41;5067263;28;20210;-68
2021/03/16 06:19:41;;;;;;;2.33;1.87;;;;;;;2.09;78.91;101005.34;5067298;28;20635;-69
2021/03/16 06:22:27;;;;;;;2.63;1.97;;;;;;;2.34;78.87;101029.38;5068126;28;20208;-69
2021/03/16 06:25:14;;;;;;;2.27;1.57;;;;;;;2.45;79.24;101043.19;5064827;28;20231;-69
2021/03/16 06:28:01;;;;;;;3.13;1.70;;;;;;;2.53;79.21;101051.78;5063979;28;20229;-68
2021/03/16 06:30:49;;;;;;;2.67;1.57;;;;;;;2.56;78.28;101049.03;5063406;28;20214;-69
2021/03/16 06:33:36;;;;;;;2.40;1.57;;;;;;;2.62;78.80;101050.63;5063748;28;20206;-68
2021/03/16 06:36:25;;;;;;;2.60;1.40;;;;;;;2.64;79.00;101024.94;5057209;28;20688;-68
2021/03/16 06:39:18;;;;;;;2.80;1.43;;;;;;;2.68;79.24;101045.13;5066243;28;20214;-68
2021/03/16 06:42:05;;;;;;;7.80;1.63;;;;;;;2.65;79.13;101054.03;5061198;28;20286;-69
2021/03/16 06:45:01;;;;;;;2.73;1.60;;;;;;;2.90;79.14;101055.94;5059797;28;20366;-68
2021/03/16 06:47:47;;;;;;;3.63;2.07;;;;;;;2.67;79.10;101049.56;5061725;28;20239;-68
2021/03/16 06:50:33;;;;;;;2.67;1.63;;;;;;;2.65;79.40;101061.13;5057842;28;20216;-68
2021/03/16 06:53:28;;;;;;;2.40;1.63;;;;;;;2.80;79.65;101058.91;5059419;28;20288;-67
2021/03/16 06:56:33;;;;;;;2.20;1.57;;;;;;;3.08;78.67;101050.94;5053956;28;20229;-68
2021/03/16 06:59:22;;;;;;;2.40;1.30;;;;;;;3.14;78.80;101059.63;5058147;28;20728;-67
2021/03/16 07:02:12;;;;;;;1.93;1.40;;;;;;;3.31;78.75;101058.13;5061690;28;20216;-67
2021/03/16 07:04:59;;;;;;;2.13;1.50;;;;;;;3.51;78.57;101061.94;5060698;28;20665;-67
2021/03/16 07:07:46;;;;;;;4.23;1.47;;;;;;;3.67;78.39;101055.16;5065984;28;20208;-68
2021/03/16 07:10:32;;;;;;;2.73;1.60;;;;;;;3.55;78.16;101055.59;5061502;28;20210;-67
2021/03/16 07:13:18;;;;;;;2.17;1.60;;;;;;;3.60;77.96;101073.09;5051849;28;20220;-68
2021/03/16 07:16:07;;;;;;;6.83;1.60;;;;;;;3.54;77.86;101053.84;5053088;28;20219;-68
2021/03/16 07:18:53;;;;;;;5.80;1.50;;;;;;;3.81;77.78;101063.53;5058804;28;20208;-68
2021/03/16 07:21:48;;;;;;;1.97;1.20;;;;;;;3.89;77.13;101068.56;5061385;28;20531;-68
2021/03/16 07:24:35;;;;;;;2.53;1.20;;;;;;;3.77;76.70;101071.66;5063454;28;20233;-68
2021/03/16 07:27:21;;;;;;;1.83;1.17;;;;;;;3.85;77.11;101065.16;5060187;28;20246;-67
2021/03/16 07:30:09;;;;;;;1.10;0.90;;;;;;;3.74;77.12;101035.47;5055211;28;20687;-68
2021/03/16 07:32:56;;;;;;;2.83;1.20;;;;;;;3.95;76.33;101076.31;5060016;28;20221;-68
2021/03/16 07:35:42;;;;;;;1.17;1.07;;;;;;;3.74;76.57;101062.03;5063479;28;20207;-67
2021/03/16 07:38:28;;;;;;;1.00;0.90;;;;;;;3.84;76.29;101092.66;5053701;28;20228;-68
2021/03/16 07:41:16;;;;;;;1.80;1.20;;;;;;;4.12;76.52;101097.00;5068434;28;20574;-68
2021/03/16 07:44:08;;;;;;;2.07;1.33;;;;;;;4.36;75.91;101093.47;5060229;28;20423;-68
2021/03/16 07:46:58;;;;;;;20.20;9.00;;;;;;;4.44;75.99;101096.69;5063893;28;20278;-68
2021/03/16 07:49:45;;;;;;;3.63;1.90;;;;;;;4.72;75.64;101112.50;5062661;28;20580;-68
2021/03/16 07:52:31;;;;;;;2.13;1.77;;;;;;;4.93;75.14;101110.81;5067499;28;20216;-68
2021/03/16 07:55:25;;;;;;;2.30;1.30;;;;;;;5.03;75.34;101112.19;5065311;28;20204;-67
2021/03/16 07:58:12;;;;;;;1.83;1.13;;;;;;;5.00;75.02;101085.69;5060648;28;20221;-68
2021/03/16 08:01:15;;;;;;;1.53;1.20;;;;;;;4.77;73.37;101078.59;5066990;28;20263;-67
2021/03/16 08:04:06;;;;;;;1.83;1.00;;;;;;;4.99;74.35;101115.91;5053431;28;20254;-68
2021/03/16 08:06:59;;;;;;;0.97;0.90;;;;;;;5.12;73.29;101119.81;5059259;28;20209;-68
2021/03/16 08:09:45;;;;;;;3.40;2.10;;;;;;;5.13;74.14;101086.06;5057138;28;20958;-68
2021/03/16 08:12:32;;;;;;;7.27;4.00;;;;;;;5.36;73.10;101115.31;5062632;28;20349;-68
2021/03/16 08:15:18;;;;;;;3.30;1.37;;;;;;;5.40;73.29;101126.69;5057914;28;20204;-68
2021/03/16 08:18:13;;;;;;;2.40;1.70;;;;;;;5.37;73.26;101126.84;5058565;28;20217;-68
2021/03/16 08:21:07;;;;;;;1.10;1.00;;;;;;;5.36;73.80;101123.31;5059195;28;20275;-68
2021/03/16 08:24:03;;;;;;;1.50;0.97;;;;;;;5.21;73.11;101111.47;5064083;28;20271;-69
2021/03/16 08:26:51;;;;;;;1.60;1.47;;;;;;;5.06;73.78;101133.38;5057595;28;20438;-70
2021/03/16 08:29:36;;;;;;;1.87;1.13;;;;;;;4.91;73.35;101132.19;5060963;28;20256;-68
2021/03/16 08:32:24;;;;;;;0.90;0.90;;;;;;;4.65;73.25;101103.03;5066042;28;20212;-68
2021/03/16 08:35:16;;;;;;;1.67;1.07;;;;;;;4.95;73.54;101140.91;5062433;28;20209;-67
2021/03/16 08:38:01;;;;;;;0.93;0.90;;;;;;;5.14;73.48;101139.25;5057717;28;20581;-68
2021/03/16 08:40:49;;;;;;;0.80;0.80;;;;;;;5.19;73.75;101145.25;5058818;28;20246;-68
2021/03/16 08:43:35;;;;;;;1.10;1.00;;;;;;;5.38;73.33;101149.88;5054434;28;20746;-68
2021/03/16 08:46:29;;;;;;;1.20;1.10;;;;;;;5.30;73.25;101152.84;5064510;28;20260;-69
2021/03/16 08:49:16;;;;;;;0.97;0.90;;;;;;;5.44;73.43;101147.81;5066184;28;20269;-68
2021/03/16 08:52:03;;;;;;;1.30;1.00;;;;;;;5.56;73.58;101151.81;5062157;28;20204;-69
2021/03/16 08:54:50;;;;;;;1.40;1.03;;;;;;;5.54;72.78;101153.66;5069373;28;20243;-68
2021/03/16 08:57:36;;;;;;;1.10;1.00;;;;;;;5.39;73.46;101157.78;5059746;28;20266;-68
2021/03/16 09:00:24;;;;;;;1.20;1.03;;;;;;;5.10;73.96;101150.06;5066943;28;20217;-69
2021/03/16 09:03:13;;;;;;;1.07;0.97;;;;;;;5.15;73.53;101153.44;5062308;28;20209;-67
2021/03/16 09:05:59;;;;;;;0.90;0.90;;;;;;;5.30;74.01;101160.84;5064850;28;20299;-70
2021/03/16 09:08:49;;;;;;;5.17;1.17;;;;;;;5.13;74.72;101156.16;5067865;28;22257;-68
2021/03/16 09:11:41;;;;;;;1.07;0.97;;;;;;;5.02;74.52;101161.03;5069408;28;20574;-67
2021/03/16 09:14:28;;;;;;;1.00;1.00;;;;;;;5.04;74.73;101153.84;5049535;28;20674;-68
2021/03/16 09:17:15;;;;;;;1.70;1.13;;;;;;;5.06;74.90;101157.31;5071828;28;20335;-68
2021/03/16 09:20:08;;;;;;;1.70;1.13;;;;;;;4.95;74.26;101164.84;5073509;28;20202;-68
2021/03/16 09:22:56;;;;;;;1.50;0.93;;;;;;;4.75;75.77;101140.78;5072946;28;20262;-68
2021/03/16 09:25:44;;;;;;;1.30;1.10;;;;;;;5.04;75.46;101163.63;5073144;28;20239;-67
2021/03/16 09:28:30;;;;;;;0.90;0.90;;;;;;;5.08;74.88;101171.44;5071207;28;20240;-68
2021/03/16 09:31:20;;;;;;;1.77;1.10;;;;;;;4.94;74.95;101161.31;5063903;28;20320;-68
2021/03/16 09:34:07;;;;;;;1.37;0.90;;;;;;;5.10;76.20;101172.25;5071925;28;20280;-67
2021/03/16 09:37:03;;;;;;;1.40;1.10;;;;;;;5.09;75.77;101170.50;5073178;28;20212;-67
2021/03/16 09:39:31;;;;;;;0.87;0.87;;;;;;;5.15;75.66;101174.72;5060094;28;20205;-67
2021/03/16 09:42:32;;;;;;;486.03;140.47;;;;;;;5.11;76.50;101155.34;5054282;28;20582;-67
2021/03/16 09:45:03;;;;;;;3.47;3.27;;;;;;;5.33;75.17;101171.34;5065851;28;20699;-68
2021/03/16 09:47:39;;;;;;;4.17;2.23;;;;;;;5.39;74.57;101175.56;5057801;28;20204;-68
2021/03/16 09:50:13;;;;;;;4.87;1.73;;;;;;;5.35;74.50;101142.88;5058260;28;20206;-68
2021/03/16 09:52:41;;;;;;;1.57;1.30;;;;;;;5.60;75.48;101182.72;5062722;28;20567;-68
2021/03/16 09:55:10;;;;;;;1.77;1.10;;;;;;;5.53;73.72;101187.44;5059327;28;20596;-68
2021/03/16 09:57:38;;;;;;;3.00;2.27;;;;;;;5.65;73.58;101186.06;5058772;28;20661;-69
2021/03/16 10:00:09;;;;;;;1.23;0.90;;;;;;;5.78;75.12;101181.09;5044692;28;20702;-67
2021/03/16 10:02:44;;;;;;;1.03;1.03;;;;;;;5.87;74.65;101165.59;5061408;28;20194;-67
2021/03/16 10:05:13;;;;;;;3.07;2.53;;;;;;;6.27;74.04;101187.06;5058810;28;20280;-67
2021/03/16 10:07:52;;;;;;;2.97;2.13;;;;;;;6.49;72.55;101198.56;5046829;28;20293;-67
2021/03/16 10:10:21;;;;;;;1.03;1.03;;;;;;;6.61;72.67;101198.00;5056982;28;20575;-68
2021/03/16 10:12:57;;;;;;;1.03;0.83;;;;;;;6.55;72.01;101206.28;5066333;28;20762;-67
2021/03/16 10:15:27;;;;;;;1.23;1.13;;;;;;;6.47;71.58;101211.97;5065415;28;20257;-68
2021/03/16 10:17:57;;;;;;;0.97;0.97;;;;;;;6.53;71.44;101202.81;5041232;28;20207;-67
2021/03/16 10:20:28;;;;;;;0.83;0.73;;;;;;;6.31;70.79;101212.69;5062328;28;20251;-66
2021/03/16 10:22:57;;;;;;;2.47;1.83;;;;;;;6.39;70.29;101214.06;5062984;28;20227;-67
2021/03/16 10:25:26;;;;;;;1.87;1.10;;;;;;;6.74;70.81;101209.03;5060723;28;20236;-67
2021/03/16 10:28:01;;;;;;;1.07;0.80;;;;;;;6.96;70.90;101211.59;5056219;28;20234;-67
2021/03/16 10:30:34;;;;;;;2.87;1.00;;;;;;;6.81;69.80;101202.47;5060212;28;20201;-67
2021/03/16 10:33:06;;;;;;;0.50;0.50;;;;;;;6.93;70.34;101212.59;5060205;28;20198;-67
2021/03/16 10:35:34;;;;;;;0.60;0.60;;;;;;;7.00;70.22;101223.84;5044434;28;20675;-66
2021/03/16 10:38:03;;;;;;;1.57;0.60;;;;;;;6.82;68.80;101199.72;5057562;28;20289;-67
2021/03/16 10:40:30;;;;;;;0.80;0.80;;;;;;;7.05;68.56;101228.06;5061734;28;20736;-67
2021/03/16 10:42:58;;;;;;;0.97;0.60;;;;;;;7.00;68.81;101205.16;5064358;28;20553;-67
2021/03/16 10:45:26;;;;;;;0.80;0.80;;;;;;;7.09;69.09;101223.47;5058051;28;20218;-67
2021/03/16 10:47:54;;;;;;;0.60;0.60;;;;;;;7.02;69.25;101228.19;5060446;28;20202;-67
2021/03/16 10:50:23;;;;;;;1.47;1.00;;;;;;;7.33;69.13;101232.13;5063895;28;20691;-67
2021/03/16 10:52:50;;;;;;;0.93;0.70;;;;;;;7.53;69.00;101229.38;5059775;28;20637;-66
2021/03/16 10:55:17;;;;;;;0.63;0.63;;;;;;;7.60;69.07;101235.31;5056396;28;20645;-67
2021/03/16 10:57:44;;;;;;;1.10;0.93;;;;;;;7.73;68.57;101231.13;5057120;28;20199;-67
2021/03/16 11:00:12;;;;;;;0.50;0.50;;;;;;;7.61;68.24;101229.03;5054660;28;20659;-67
2021/03/16 11:02:40;;;;;;;0.60;0.60;;;;;;;7.45;68.39;101231.56;5058739;28;20288;-68
2021/03/16 11:05:08;;;;;;;0.70;0.70;;;;;;;6.90;67.14;101175.34;5058404;28;21191;-68
2021/03/16 11:07:36;;;;;;;0.67;0.67;;;;;;;7.20;67.42;101228.28;5057695;28;20219;-67
2021/03/16 11:10:05;;;;;;;0.53;0.53;;;;;;;7.35;67.57;101227.59;5062092;28;20752;-68
2021/03/16 11:12:32;;;;;;;0.63;0.63;;;;;;;7.14;67.01;101227.66;5058542;28;20214;-67
2021/03/16 11:14:59;;;;;;;1.40;0.70;;;;;;;7.11;66.93;101226.94;5055342;28;20198;-67
2021/03/16 11:17:26;;;;;;;0.63;0.63;;;;;;;7.24;67.11;101229.88;5057960;28;20411;-67
2021/03/16 11:19:54;;;;;;;0.60;0.60;;;;;;;7.37;67.31;101228.41;5057636;28;20656;-67
2021/03/16 11:22:23;;;;;;;0.50;0.50;;;;;;;7.63;67.97;101225.34;5055293;28;20285;-67
2021/03/16 11:25:03;;;;;;;0.67;0.60;;;;;;;7.88;67.89;101230.38;5068332;28;20215;-68
2021/03/16 11:27:40;;;;;;;4.23;0.70;;;;;;;8.07;66.66;101230.34;5044770;28;20254;-68
2021/03/16 11:30:08;;;;;;;0.70;0.70;;;;;;;8.20;66.75;101209.19;5041740;28;20553;-67
2021/03/16 11:32:36;;;;;;;0.60;0.60;;;;;;;8.42;66.07;101212.53;5049470;28;20645;-67
2021/03/16 11:35:22;;;;;;;15.07;11.87;;;;;;;8.62;65.05;101214.19;5048364;28;20636;-68
2021/03/16 11:38:08;;;;;;;214.37;78.90;;;;;;;8.52;63.30;101204.91;5030863;28;20719;-67
2021/03/16 11:40:56;;;;;;;10.03;5.07;;;;;;;8.75;64.51;101217.94;5048987;28;20560;-68
2021/03/16 11:43:41;;;;;;;1.90;1.80;;;;;;;8.84;64.47;101206.75;5050690;28;20211;-68
2021/03/16 11:46:27;;;;;;;1.50;1.23;;;;;;;9.13;65.54;101223.06;5039422;28;20220;-68
2021/03/16 11:49:13;;;;;;;2.70;1.30;;;;;;;9.14;62.42;101214.94;5050650;28;20690;-68
2021/03/16 11:51:59;;;;;;;1.17;1.10;;;;;;;9.30;64.13;101210.50;5050904;28;20223;-68
2021/03/16 11:54:45;;;;;;;1.13;1.03;;;;;;;9.60;63.29;101213.28;5050766;28;20332;-68
2021/03/16 11:57:31;;;;;;;1.37;1.00;;;;;;;9.79;62.99;101220.28;5050027;28;20218;-68
2021/03/16 12:00:18;;;;;;;5.17;4.60;;;;;;;9.96;62.37;101220.19;5050350;28;20263;-66
2021/03/16 12:03:04;;;;;;;0.70;0.70;;;;;;;10.03;61.82;101221.56;5050226;28;20203;-66
2021/03/16 12:05:50;;;;;;;0.70;0.70;;;;;;;10.31;62.71;101214.63;5049643;28;20981;-67
2021/03/16 12:08:36;;;;;;;1.90;0.90;;;;;;;10.55;61.96;101224.78;5048746;28;20224;-67
2021/03/16 12:11:22;;;;;;;1.07;1.00;;;;;;;10.58;61.15;101223.72;5046221;28;20303;-66
2021/03/16 12:14:08;;;;;;;2.10;0.83;;;;;;;10.39;60.00;101220.41;5030580;28;20403;-66
2021/03/16 12:16:54;;;;;;;0.80;0.70;;;;;;;10.27;58.33;101220.19;5037783;28;20279;-67
2021/03/16 12:19:40;;;;;;;2.27;1.70;;;;;;;10.30;59.47;101213.75;5049735;28;20216;-67
2021/03/16 12:22:26;;;;;;;11.93;1.40;;;;;;;10.49;59.80;101224.28;5049622;28;20219;-67
2021/03/16 12:25:12;;;;;;;3.63;0.73;;;;;;;10.39;57.85;101229.31;5049460;28;20228;-67
2021/03/16 12:27:58;;;;;;;1.60;0.60;;;;;;;10.38;59.24;101229.41;5051353;28;20311;-67
2021/03/16 12:30:44;;;;;;;2.83;0.70;;;;;;;10.55;61.17;101223.91;5069164;28;20695;-66
2021/03/16 12:33:29;;;;;;;0.70;0.53;;;;;;;10.56;60.98;101188.03;5070849;28;20224;-66
2021/03/16 12:36:15;;;;;;;1.70;0.70;;;;;;;10.83;62.05;101193.56;5070248;28;20220;-66
2021/03/16 12:39:01;;;;;;;1.70;0.70;;;;;;;10.91;54.76;101220.81;5070291;28;20287;-67